sensor_id;sensor_type;location;lat;lon;timestamp;temperature;humidity
73277;DHT22;61501;43.316;5.372;2022-10-26T00:00:36;22.00;93.10
73277;DHT22;61501;43.316;5.372;2022-10-26T00:03:01;22.00;93.40
73277;DHT22;61501;43.316;5.372;2022-10-26T00:05:27;21.90;93.20
73277;DHT22;61501;43.316;5.372;2022-10-26T00:07:53;21.90;93.20
73277;DHT22;61501;43.316;5.372;2022-10-26T00:10:18;21.90;93.20
73277;DHT22;61501;43.316;5.372;2022-10-26T00:12:48;21.90;93.40
73277;DHT22;61501;43.316;5.372;2022-10-26T00:15:15;21.90;93.40
73277;DHT22;61501;43.316;5.372;2022-10-26T00:17:41;21.90;93.50
73277;DHT22;61501;43.316;5.372;2022-10-26T00:20:07;21.90;93.50
73277;DHT22;61501;43.316;5.372;2022-10-26T00:22:32;21.90;93.80
73277;DHT22;61501;43.316;5.372;2022-10-26T00:24:58;22.00;94.00
73277;DHT22;61501;43.316;5.372;2022-10-26T00:27:23;21.90;94.00
73277;DHT22;61501;43.316;5.372;2022-10-26T00:29:49;21.90;93.90
73277;DHT22;61501;43.316;5.372;2022-10-26T00:32:14;21.90;93.70
73277;DHT22;61501;43.316;5.372;2022-10-26T00:34:40;21.80;92.70
73277;DHT22;61501;43.316;5.372;2022-10-26T00:37:06;21.80;92.10
73277;DHT22;61501;43.316;5.372;2022-10-26T00:39:31;21.80;91.10
73277;DHT22;61501;43.316;5.372;2022-10-26T00:41:57;21.80;90.90
73277;DHT22;61501;43.316;5.372;2022-10-26T00:47:13;21.80;90.20
73277;DHT22;61501;43.316;5.372;2022-10-26T00:49:39;21.80;89.70
73277;DHT22;61501;43.316;5.372;2022-10-26T00:52:06;21.70;89.60
73277;DHT22;61501;43.316;5.372;2022-10-26T00:54:32;21.70;90.10
73277;DHT22;61501;43.316;5.372;2022-10-26T00:56:58;21.70;90.30
73277;DHT22;61501;43.316;5.372;2022-10-26T00:59:24;21.70;90.30
73277;DHT22;61501;43.316;5.372;2022-10-26T01:01:50;21.70;90.40
73277;DHT22;61501;43.316;5.372;2022-10-26T01:04:16;21.70;90.50
73277;DHT22;61501;43.316;5.372;2022-10-26T01:06:43;21.70;90.30
73277;DHT22;61501;43.316;5.372;2022-10-26T01:09:10;21.70;89.10
73277;DHT22;61501;43.316;5.372;2022-10-26T01:11:36;21.80;88.90
73277;DHT22;61501;43.316;5.372;2022-10-26T01:14:03;21.80;88.40
73277;DHT22;61501;43.316;5.372;2022-10-26T01:17:47;21.80;88.00
73277;DHT22;61501;43.316;5.372;2022-10-26T01:20:04;21.80;87.40
73277;DHT22;61501;43.316;5.372;2022-10-26T01:27:57;21.80;88.20
73277;DHT22;61501;43.316;5.372;2022-10-26T01:30:35;21.70;88.00
73277;DHT22;61501;43.316;5.372;2022-10-26T01:40:37;21.70;88.60
73277;DHT22;61501;43.316;5.372;2022-10-26T01:43:07;21.70;89.40
73277;DHT22;61501;43.316;5.372;2022-10-26T01:45:34;21.70;89.50
73277;DHT22;61501;43.316;5.372;2022-10-26T01:48:02;21.70;89.60
73277;DHT22;61501;43.316;5.372;2022-10-26T01:50:30;21.70;89.80
73277;DHT22;61501;43.316;5.372;2022-10-26T01:52:56;21.70;89.40
73277;DHT22;61501;43.316;5.372;2022-10-26T01:55:48;21.70;88.50
73277;DHT22;61501;43.316;5.372;2022-10-26T02:12:40;21.70;88.80
73277;DHT22;61501;43.316;5.372;2022-10-26T02:18:37;21.70;87.60
73277;DHT22;61501;43.316;5.372;2022-10-26T02:21:08;21.70;87.60
73277;DHT22;61501;43.316;5.372;2022-10-26T02:23:36;21.70;87.40
73277;DHT22;61501;43.316;5.372;2022-10-26T02:26:04;21.70;87.20
73277;DHT22;61501;43.316;5.372;2022-10-26T02:28:43;21.70;87.20
73277;DHT22;61501;43.316;5.372;2022-10-26T02:31:11;21.60;87.40
73277;DHT22;61501;43.316;5.372;2022-10-26T02:33:41;21.60;87.00
73277;DHT22;61501;43.316;5.372;2022-10-26T02:36:11;21.60;87.60
73277;DHT22;61501;43.316;5.372;2022-10-26T02:38:39;21.70;87.40
73277;DHT22;61501;43.316;5.372;2022-10-26T02:41:07;21.70;87.50
73277;DHT22;61501;43.316;5.372;2022-10-26T02:43:38;21.70;87.10
73277;DHT22;61501;43.316;5.372;2022-10-26T02:46:08;21.70;86.60
73277;DHT22;61501;43.316;5.372;2022-10-26T02:48:35;21.70;87.60
73277;DHT22;61501;43.316;5.372;2022-10-26T02:56:50;21.70;86.40
73277;DHT22;61501;43.316;5.372;2022-10-26T02:59:19;21.70;86.40
73277;DHT22;61501;43.316;5.372;2022-10-26T03:01:46;21.70;86.40
73277;DHT22;61501;43.316;5.372;2022-10-26T03:04:12;21.60;87.10
73277;DHT22;61501;43.316;5.372;2022-10-26T03:06:37;21.60;87.20
73277;DHT22;61501;43.316;5.372;2022-10-26T03:09:03;21.50;87.40
73277;DHT22;61501;43.316;5.372;2022-10-26T03:11:28;21.50;87.80
73277;DHT22;61501;43.316;5.372;2022-10-26T03:13:54;21.50;88.00
73277;DHT22;61501;43.316;5.372;2022-10-26T03:16:20;21.50;88.30
73277;DHT22;61501;43.316;5.372;2022-10-26T03:18:45;21.50;88.70
73277;DHT22;61501;43.316;5.372;2022-10-26T03:21:11;21.50;89.00
73277;DHT22;61501;43.316;5.372;2022-10-26T03:23:36;21.50;89.20
73277;DHT22;61501;43.316;5.372;2022-10-26T03:26:02;21.50;89.20
73277;DHT22;61501;43.316;5.372;2022-10-26T03:28:27;21.50;89.30
73277;DHT22;61501;43.316;5.372;2022-10-26T03:30:53;21.40;89.30
73277;DHT22;61501;43.316;5.372;2022-10-26T03:33:19;21.40;89.50
73277;DHT22;61501;43.316;5.372;2022-10-26T03:35:44;21.30;89.90
73277;DHT22;61501;43.316;5.372;2022-10-26T03:38:10;21.30;90.00
73277;DHT22;61501;43.316;5.372;2022-10-26T03:40:36;21.30;90.20
73277;DHT22;61501;43.316;5.372;2022-10-26T03:43:02;21.20;90.10
73277;DHT22;61501;43.316;5.372;2022-10-26T03:45:27;21.20;90.20
73277;DHT22;61501;43.316;5.372;2022-10-26T03:47:53;21.20;90.60
73277;DHT22;61501;43.316;5.372;2022-10-26T03:50:20;21.20;90.70
73277;DHT22;61501;43.316;5.372;2022-10-26T03:52:47;21.20;90.70
73277;DHT22;61501;43.316;5.372;2022-10-26T03:55:13;21.20;90.80
73277;DHT22;61501;43.316;5.372;2022-10-26T03:57:43;21.20;90.70
73277;DHT22;61501;43.316;5.372;2022-10-26T04:00:13;21.20;90.90
73277;DHT22;61501;43.316;5.372;2022-10-26T04:02:41;21.20;90.90
73277;DHT22;61501;43.316;5.372;2022-10-26T04:05:08;21.20;90.80
73277;DHT22;61501;43.316;5.372;2022-10-26T04:07:33;21.20;90.80
73277;DHT22;61501;43.316;5.372;2022-10-26T04:09:59;21.30;90.70
73277;DHT22;61501;43.316;5.372;2022-10-26T04:12:25;21.20;90.70
73277;DHT22;61501;43.316;5.372;2022-10-26T04:14:50;21.20;90.70
73277;DHT22;61501;43.316;5.372;2022-10-26T04:17:16;21.20;90.80
73277;DHT22;61501;43.316;5.372;2022-10-26T04:19:41;21.20;91.00
73277;DHT22;61501;43.316;5.372;2022-10-26T04:22:07;21.20;91.10
73277;DHT22;61501;43.316;5.372;2022-10-26T04:24:32;21.20;91.10
73277;DHT22;61501;43.316;5.372;2022-10-26T04:26:58;21.20;91.10
73277;DHT22;61501;43.316;5.372;2022-10-26T04:29:24;21.20;91.30
73277;DHT22;61501;43.316;5.372;2022-10-26T04:31:49;21.20;91.10
73277;DHT22;61501;43.316;5.372;2022-10-26T04:34:15;21.20;91.20
73277;DHT22;61501;43.316;5.372;2022-10-26T04:36:40;21.10;91.10
73277;DHT22;61501;43.316;5.372;2022-10-26T04:39:06;21.10;91.10
73277;DHT22;61501;43.316;5.372;2022-10-26T04:41:32;21.00;90.70
73277;DHT22;61501;43.316;5.372;2022-10-26T04:43:57;21.00;91.00
73277;DHT22;61501;43.316;5.372;2022-10-26T04:46:23;20.90;91.30
73277;DHT22;61501;43.316;5.372;2022-10-26T04:48:48;20.90;91.70
73277;DHT22;61501;43.316;5.372;2022-10-26T04:51:14;20.80;91.70
73277;DHT22;61501;43.316;5.372;2022-10-26T04:53:39;20.90;91.80
73277;DHT22;61501;43.316;5.372;2022-10-26T04:56:05;20.80;91.80
73277;DHT22;61501;43.316;5.372;2022-10-26T04:58:31;20.80;91.90
73277;DHT22;61501;43.316;5.372;2022-10-26T05:00:56;20.80;92.10
73277;DHT22;61501;43.316;5.372;2022-10-26T05:03:22;20.80;92.10
73277;DHT22;61501;43.316;5.372;2022-10-26T05:05:48;20.80;92.30
73277;DHT22;61501;43.316;5.372;2022-10-26T05:08:14;20.80;92.30
73277;DHT22;61501;43.316;5.372;2022-10-26T05:10:40;20.80;92.20
73277;DHT22;61501;43.316;5.372;2022-10-26T05:13:06;20.70;92.30
73277;DHT22;61501;43.316;5.372;2022-10-26T05:15:31;20.70;92.50
73277;DHT22;61501;43.316;5.372;2022-10-26T05:17:58;20.70;92.70
73277;DHT22;61501;43.316;5.372;2022-10-26T05:20:25;20.70;92.70
73277;DHT22;61501;43.316;5.372;2022-10-26T05:23:00;20.60;92.90
73277;DHT22;61501;43.316;5.372;2022-10-26T05:25:28;20.60;92.50
73277;DHT22;61501;43.316;5.372;2022-10-26T05:28:01;20.60;92.60
73277;DHT22;61501;43.316;5.372;2022-10-26T05:30:30;20.60;92.80
73277;DHT22;61501;43.316;5.372;2022-10-26T05:32:57;20.70;92.90
73277;DHT22;61501;43.316;5.372;2022-10-26T05:35:24;20.70;92.70
73277;DHT22;61501;43.316;5.372;2022-10-26T05:37:50;20.60;92.70
73277;DHT22;61501;43.316;5.372;2022-10-26T05:40:16;20.60;92.80
73277;DHT22;61501;43.316;5.372;2022-10-26T05:42:42;20.60;92.90
73277;DHT22;61501;43.316;5.372;2022-10-26T05:45:08;20.60;93.10
73277;DHT22;61501;43.316;5.372;2022-10-26T05:47:41;20.60;93.20
73277;DHT22;61501;43.316;5.372;2022-10-26T05:50:08;20.50;93.30
73277;DHT22;61501;43.316;5.372;2022-10-26T05:52:45;20.50;93.50
73277;DHT22;61501;43.316;5.372;2022-10-26T05:55:16;20.40;93.80
73277;DHT22;61501;43.316;5.372;2022-10-26T05:57:42;20.50;94.00
73277;DHT22;61501;43.316;5.372;2022-10-26T06:00:14;20.40;94.20
73277;DHT22;61501;43.316;5.372;2022-10-26T06:05:08;20.40;94.30
73277;DHT22;61501;43.316;5.372;2022-10-26T06:07:36;20.30;94.80
73277;DHT22;61501;43.316;5.372;2022-10-26T06:10:03;20.30;94.50
73277;DHT22;61501;43.316;5.372;2022-10-26T06:12:28;20.40;94.50
73277;DHT22;61501;43.316;5.372;2022-10-26T06:14:54;20.40;94.70
73277;DHT22;61501;43.316;5.372;2022-10-26T06:17:40;20.40;94.70
73277;DHT22;61501;43.316;5.372;2022-10-26T06:23:08;20.30;94.90
73277;DHT22;61501;43.316;5.372;2022-10-26T06:25:40;20.30;94.90
73277;DHT22;61501;43.316;5.372;2022-10-26T06:28:23;20.30;95.20
73277;DHT22;61501;43.316;5.372;2022-10-26T06:30:52;20.30;95.10
73277;DHT22;61501;43.316;5.372;2022-10-26T06:33:18;20.30;95.30
73277;DHT22;61501;43.316;5.372;2022-10-26T06:35:54;20.30;95.30
73277;DHT22;61501;43.316;5.372;2022-10-26T06:38:21;20.30;95.50
73277;DHT22;61501;43.316;5.372;2022-10-26T06:40:50;20.30;95.30
73277;DHT22;61501;43.316;5.372;2022-10-26T06:43:28;20.40;95.50
73277;DHT22;61501;43.316;5.372;2022-10-26T06:51:16;20.50;95.20
73277;DHT22;61501;43.316;5.372;2022-10-26T06:56:16;20.70;94.80
73277;DHT22;61501;43.316;5.372;2022-10-26T06:58:43;20.70;94.70
73277;DHT22;61501;43.316;5.372;2022-10-26T07:01:10;20.70;94.80
73277;DHT22;61501;43.316;5.372;2022-10-26T07:03:37;20.80;94.40
73277;DHT22;61501;43.316;5.372;2022-10-26T07:06:03;20.80;94.30
73277;DHT22;61501;43.316;5.372;2022-10-26T07:08:30;20.80;94.30
73277;DHT22;61501;43.316;5.372;2022-10-26T07:10:56;20.80;94.30
73277;DHT22;61501;43.316;5.372;2022-10-26T07:13:21;20.90;94.30
73277;DHT22;61501;43.316;5.372;2022-10-26T07:15:47;20.90;94.30
73277;DHT22;61501;43.316;5.372;2022-10-26T07:18:13;20.90;94.30
73277;DHT22;61501;43.316;5.372;2022-10-26T07:20:40;21.00;93.80
73277;DHT22;61501;43.316;5.372;2022-10-26T07:23:08;21.00;93.50
73277;DHT22;61501;43.316;5.372;2022-10-26T07:25:36;21.10;93.50
73277;DHT22;61501;43.316;5.372;2022-10-26T07:28:05;21.10;93.50
73277;DHT22;61501;43.316;5.372;2022-10-26T07:30:31;21.20;93.50
73277;DHT22;61501;43.316;5.372;2022-10-26T07:33:01;21.10;93.60
73277;DHT22;61501;43.316;5.372;2022-10-26T07:35:26;21.10;93.60
73277;DHT22;61501;43.316;5.372;2022-10-26T07:37:56;21.10;93.70
73277;DHT22;61501;43.316;5.372;2022-10-26T07:40:22;21.30;93.50
73277;DHT22;61501;43.316;5.372;2022-10-26T07:42:47;21.30;93.40
73277;DHT22;61501;43.316;5.372;2022-10-26T07:45:13;21.30;93.60
73277;DHT22;61501;43.316;5.372;2022-10-26T07:47:39;21.30;93.40
73277;DHT22;61501;43.316;5.372;2022-10-26T07:50:05;21.40;93.30
73277;DHT22;61501;43.316;5.372;2022-10-26T07:52:30;21.30;93.60
73277;DHT22;61501;43.316;5.372;2022-10-26T07:54:57;21.30;93.80
73277;DHT22;61501;43.316;5.372;2022-10-26T07:57:22;21.40;93.60
73277;DHT22;61501;43.316;5.372;2022-10-26T07:59:48;21.40;93.40
73277;DHT22;61501;43.316;5.372;2022-10-26T08:02:13;21.40;93.60
73277;DHT22;61501;43.316;5.372;2022-10-26T08:04:39;21.40;93.60
73277;DHT22;61501;43.316;5.372;2022-10-26T08:07:04;21.50;93.50
73277;DHT22;61501;43.316;5.372;2022-10-26T08:09:30;21.50;93.50
73277;DHT22;61501;43.316;5.372;2022-10-26T08:11:55;21.60;93.40
73277;DHT22;61501;43.316;5.372;2022-10-26T08:14:21;21.70;93.20
73277;DHT22;61501;43.316;5.372;2022-10-26T08:16:47;21.80;92.90
73277;DHT22;61501;43.316;5.372;2022-10-26T08:19:17;21.90;92.70
73277;DHT22;61501;43.316;5.372;2022-10-26T08:21:42;22.00;92.50
73277;DHT22;61501;43.316;5.372;2022-10-26T08:24:08;22.10;92.30
73277;DHT22;61501;43.316;5.372;2022-10-26T08:26:33;22.10;92.40
73277;DHT22;61501;43.316;5.372;2022-10-26T08:28:59;22.20;92.30
73277;DHT22;61501;43.316;5.372;2022-10-26T08:31:25;22.20;92.30
73277;DHT22;61501;43.316;5.372;2022-10-26T08:33:50;22.10;92.40
73277;DHT22;61501;43.316;5.372;2022-10-26T08:36:22;22.20;92.40
73277;DHT22;61501;43.316;5.372;2022-10-26T08:38:47;22.20;92.50
73277;DHT22;61501;43.316;5.372;2022-10-26T08:41:13;22.30;92.50
73277;DHT22;61501;43.316;5.372;2022-10-26T08:43:54;22.40;92.40
73277;DHT22;61501;43.316;5.372;2022-10-26T08:46:36;22.50;92.80
73277;DHT22;61501;43.316;5.372;2022-10-26T08:49:19;22.50;92.10
73277;DHT22;61501;43.316;5.372;2022-10-26T08:51:46;22.60;92.00
73277;DHT22;61501;43.316;5.372;2022-10-26T08:56:59;22.70;91.70
73277;DHT22;61501;43.316;5.372;2022-10-26T08:59:46;22.70;91.70
73277;DHT22;61501;43.316;5.372;2022-10-26T09:02:15;22.70;91.50
73277;DHT22;61501;43.316;5.372;2022-10-26T09:04:41;22.90;91.10
73277;DHT22;61501;43.316;5.372;2022-10-26T09:07:54;23.10;91.40
73277;DHT22;61501;43.316;5.372;2022-10-26T09:16:32;23.20;90.90
73277;DHT22;61501;43.316;5.372;2022-10-26T09:24:32;23.40;90.30
73277;DHT22;61501;43.316;5.372;2022-10-26T09:27:38;23.50;90.70
73277;DHT22;61501;43.316;5.372;2022-10-26T09:30:13;23.60;90.20
73277;DHT22;61501;43.316;5.372;2022-10-26T09:32:48;23.70;89.10
73277;DHT22;61501;43.316;5.372;2022-10-26T09:35:25;23.80;89.40
73277;DHT22;61501;43.316;5.372;2022-10-26T09:37:57;23.90;89.10
73277;DHT22;61501;43.316;5.372;2022-10-26T09:40:27;24.00;88.60
73277;DHT22;61501;43.316;5.372;2022-10-26T09:43:11;24.20;88.80
73277;DHT22;61501;43.316;5.372;2022-10-26T09:45:43;24.20;87.30
73277;DHT22;61501;43.316;5.372;2022-10-26T09:48:15;24.30;86.90
73277;DHT22;61501;43.316;5.372;2022-10-26T09:50:47;24.50;87.60
73277;DHT22;61501;43.316;5.372;2022-10-26T09:53:14;24.40;86.70
73277;DHT22;61501;43.316;5.372;2022-10-26T09:55:45;24.60;86.20
73277;DHT22;61501;43.316;5.372;2022-10-26T09:58:26;24.70;86.00
73277;DHT22;61501;43.316;5.372;2022-10-26T10:00:53;24.80;84.90
73277;DHT22;61501;43.316;5.372;2022-10-26T10:03:25;24.90;84.80
73277;DHT22;61501;43.316;5.372;2022-10-26T10:05:51;24.90;85.00
73277;DHT22;61501;43.316;5.372;2022-10-26T10:08:24;24.90;85.00
73277;DHT22;61501;43.316;5.372;2022-10-26T10:11:20;24.90;84.10
73277;DHT22;61501;43.316;5.372;2022-10-26T10:13:45;25.20;83.90
73277;DHT22;61501;43.316;5.372;2022-10-26T10:16:22;25.10;83.60
73277;DHT22;61501;43.316;5.372;2022-10-26T10:18:53;25.10;84.60
73277;DHT22;61501;43.316;5.372;2022-10-26T10:21:19;25.20;83.60
73277;DHT22;61501;43.316;5.372;2022-10-26T10:23:50;25.50;82.00
73277;DHT22;61501;43.316;5.372;2022-10-26T10:26:16;25.50;81.60
73277;DHT22;61501;43.316;5.372;2022-10-26T10:28:55;25.30;82.20
73277;DHT22;61501;43.316;5.372;2022-10-26T10:31:27;25.20;82.70
73277;DHT22;61501;43.316;5.372;2022-10-26T10:33:53;25.00;83.40
73277;DHT22;61501;43.316;5.372;2022-10-26T10:36:22;25.20;83.70
73277;DHT22;61501;43.316;5.372;2022-10-26T10:38:50;25.30;83.00
73277;DHT22;61501;43.316;5.372;2022-10-26T10:46:27;25.30;82.70
73277;DHT22;61501;43.316;5.372;2022-10-26T10:49:00;25.40;82.30
73277;DHT22;61501;43.316;5.372;2022-10-26T10:51:28;25.40;81.80
73277;DHT22;61501;43.316;5.372;2022-10-26T10:53:55;25.40;82.00
73277;DHT22;61501;43.316;5.372;2022-10-26T10:56:40;25.30;82.60
73277;DHT22;61501;43.316;5.372;2022-10-26T11:04:57;25.30;83.10
73277;DHT22;61501;43.316;5.372;2022-10-26T11:07:25;25.20;83.50
73277;DHT22;61501;43.316;5.372;2022-10-26T11:09:53;25.00;84.80
73277;DHT22;61501;43.316;5.372;2022-10-26T11:12:27;24.90;85.60
73277;DHT22;61501;43.316;5.372;2022-10-26T11:15:00;24.90;86.80
73277;DHT22;61501;43.316;5.372;2022-10-26T11:17:32;25.00;86.30
73277;DHT22;61501;43.316;5.372;2022-10-26T11:20:07;25.00;87.00
73277;DHT22;61501;43.316;5.372;2022-10-26T11:22:39;24.90;88.70
73277;DHT22;61501;43.316;5.372;2022-10-26T11:25:15;24.90;89.10
73277;DHT22;61501;43.316;5.372;2022-10-26T11:27:55;25.40;87.40
73277;DHT22;61501;43.316;5.372;2022-10-26T11:30:23;25.70;85.30
73277;DHT22;61501;43.316;5.372;2022-10-26T11:35:51;25.80;84.40
73277;DHT22;61501;43.316;5.372;2022-10-26T11:43:38;25.90;83.90
73277;DHT22;61501;43.316;5.372;2022-10-26T11:46:14;25.90;84.50
73277;DHT22;61501;43.316;5.372;2022-10-26T11:48:54;26.30;82.90
73277;DHT22;61501;43.316;5.372;2022-10-26T11:54:32;29.70;68.50
73277;DHT22;61501;43.316;5.372;2022-10-26T11:56:58;28.70;69.80
73277;DHT22;61501;43.316;5.372;2022-10-26T11:59:28;28.90;71.20
73277;DHT22;61501;43.316;5.372;2022-10-26T12:02:15;30.40;65.20
73277;DHT22;61501;43.316;5.372;2022-10-26T12:04:44;31.50;60.70
73277;DHT22;61501;43.316;5.372;2022-10-26T12:07:49;31.60;60.90
73277;DHT22;61501;43.316;5.372;2022-10-26T12:10:18;32.00;58.90
73277;DHT22;61501;43.316;5.372;2022-10-26T12:12:51;30.80;60.80
73277;DHT22;61501;43.316;5.372;2022-10-26T12:15:29;30.90;62.60
73277;DHT22;61501;43.316;5.372;2022-10-26T12:18:23;30.10;64.90
73277;DHT22;61501;43.316;5.372;2022-10-26T12:20:51;30.60;63.40
73277;DHT22;61501;43.316;5.372;2022-10-26T12:23:18;30.60;62.50
73277;DHT22;61501;43.316;5.372;2022-10-26T12:25:45;30.80;62.20
73277;DHT22;61501;43.316;5.372;2022-10-26T12:28:39;30.50;62.60
73277;DHT22;61501;43.316;5.372;2022-10-26T12:34:04;27.40;73.90
73277;DHT22;61501;43.316;5.372;2022-10-26T12:52:53;26.70;78.90
73277;DHT22;61501;43.316;5.372;2022-10-26T13:00:25;28.70;71.50
73277;DHT22;61501;43.316;5.372;2022-10-26T13:08:57;27.80;74.00
73277;DHT22;61501;43.316;5.372;2022-10-26T13:11:34;28.60;72.10
73277;DHT22;61501;43.316;5.372;2022-10-26T13:14:07;29.30;69.30
73277;DHT22;61501;43.316;5.372;2022-10-26T13:16:33;28.60;70.00
73277;DHT22;61501;43.316;5.372;2022-10-26T13:18:59;28.90;69.80
73277;DHT22;61501;43.316;5.372;2022-10-26T13:21:26;29.10;69.30
73277;DHT22;61501;43.316;5.372;2022-10-26T13:26:22;30.00;65.70
73277;DHT22;61501;43.316;5.372;2022-10-26T13:28:50;30.30;65.10
73277;DHT22;61501;43.316;5.372;2022-10-26T13:34:18;31.90;59.60
73277;DHT22;61501;43.316;5.372;2022-10-26T13:39:48;33.40;56.50
73277;DHT22;61501;43.316;5.372;2022-10-26T13:42:19;32.80;56.20
73277;DHT22;61501;43.316;5.372;2022-10-26T13:44:56;32.80;57.10
73277;DHT22;61501;43.316;5.372;2022-10-26T13:47:28;33.60;54.20
73277;DHT22;61501;43.316;5.372;2022-10-26T13:50:00;33.80;52.80
73277;DHT22;61501;43.316;5.372;2022-10-26T13:52:33;33.70;52.70
73277;DHT22;61501;43.316;5.372;2022-10-26T13:55:23;33.20;53.20
73277;DHT22;61501;43.316;5.372;2022-10-26T14:00:35;31.90;57.10
73277;DHT22;61501;43.316;5.372;2022-10-26T14:03:17;29.70;64.60
73277;DHT22;61501;43.316;5.372;2022-10-26T14:05:46;28.60;70.50
73277;DHT22;61501;43.316;5.372;2022-10-26T14:08:16;27.50;76.70
73277;DHT22;61501;43.316;5.372;2022-10-26T14:10:47;26.60;81.00
73277;DHT22;61501;43.316;5.372;2022-10-26T14:13:16;26.20;83.70
73277;DHT22;61501;43.316;5.372;2022-10-26T14:15:45;26.60;83.10
73277;DHT22;61501;43.316;5.372;2022-10-26T14:18:36;27.40;79.20
73277;DHT22;61501;43.316;5.372;2022-10-26T14:21:06;27.20;79.50
73277;DHT22;61501;43.316;5.372;2022-10-26T14:23:45;26.60;81.90
73277;DHT22;61501;43.316;5.372;2022-10-26T14:28:51;26.50;82.10
73277;DHT22;61501;43.316;5.372;2022-10-26T14:31:24;26.40;82.60
73277;DHT22;61501;43.316;5.372;2022-10-26T14:33:51;25.90;86.10
73277;DHT22;61501;43.316;5.372;2022-10-26T14:36:18;25.70;87.40
73277;DHT22;61501;43.316;5.372;2022-10-26T14:38:46;25.60;88.10
73277;DHT22;61501;43.316;5.372;2022-10-26T14:41:16;25.40;89.50
73277;DHT22;61501;43.316;5.372;2022-10-26T14:43:43;25.20;90.80
73277;DHT22;61501;43.316;5.372;2022-10-26T14:46:14;25.20;91.10
73277;DHT22;61501;43.316;5.372;2022-10-26T14:48:58;25.40;90.70
73277;DHT22;61501;43.316;5.372;2022-10-26T14:51:34;25.40;91.10
73277;DHT22;61501;43.316;5.372;2022-10-26T14:54:01;25.40;90.80
73277;DHT22;61501;43.316;5.372;2022-10-26T14:56:38;25.60;90.70
73277;DHT22;61501;43.316;5.372;2022-10-26T15:01:55;25.60;90.80
73277;DHT22;61501;43.316;5.372;2022-10-26T15:04:31;25.80;90.20
73277;DHT22;61501;43.316;5.372;2022-10-26T15:07:06;25.90;89.60
73277;DHT22;61501;43.316;5.372;2022-10-26T15:12:33;25.80;89.30
73277;DHT22;61501;43.316;5.372;2022-10-26T15:17:41;25.60;90.00
73277;DHT22;61501;43.316;5.372;2022-10-26T15:20:15;25.60;90.20
73277;DHT22;61501;43.316;5.372;2022-10-26T15:22:42;25.70;90.10
73277;DHT22;61501;43.316;5.372;2022-10-26T15:25:20;25.70;89.60
73277;DHT22;61501;43.316;5.372;2022-10-26T15:27:48;25.70;89.30
73277;DHT22;61501;43.316;5.372;2022-10-26T15:30:25;25.70;88.80
73277;DHT22;61501;43.316;5.372;2022-10-26T15:32:53;25.60;88.50
73277;DHT22;61501;43.316;5.372;2022-10-26T15:37:48;25.90;87.80
73277;DHT22;61501;43.316;5.372;2022-10-26T15:40:14;26.10;86.70
73277;DHT22;61501;43.316;5.372;2022-10-26T15:42:41;26.20;85.00
73277;DHT22;61501;43.316;5.372;2022-10-26T15:45:22;26.30;84.50
73277;DHT22;61501;43.316;5.372;2022-10-26T15:47:49;26.10;84.90
73277;DHT22;61501;43.316;5.372;2022-10-26T15:50:22;25.90;86.30
73277;DHT22;61501;43.316;5.372;2022-10-26T15:52:48;25.50;87.60
73277;DHT22;61501;43.316;5.372;2022-10-26T15:55:15;25.50;88.00
73277;DHT22;61501;43.316;5.372;2022-10-26T15:57:41;25.50;88.10
73277;DHT22;61501;43.316;5.372;2022-10-26T16:00:13;25.50;88.30
73277;DHT22;61501;43.316;5.372;2022-10-26T16:02:41;25.40;89.30
73277;DHT22;61501;43.316;5.372;2022-10-26T16:05:07;25.30;89.60
73277;DHT22;61501;43.316;5.372;2022-10-26T16:07:33;25.10;89.60
73277;DHT22;61501;43.316;5.372;2022-10-26T16:09:59;24.90;90.50
73277;DHT22;61501;43.316;5.372;2022-10-26T16:12:25;24.80;90.80
73277;DHT22;61501;43.316;5.372;2022-10-26T16:14:50;24.80;90.70
73277;DHT22;61501;43.316;5.372;2022-10-26T16:17:16;24.80;90.50
73277;DHT22;61501;43.316;5.372;2022-10-26T16:19:42;24.70;90.30
73277;DHT22;61501;43.316;5.372;2022-10-26T16:22:08;24.70;90.50
73277;DHT22;61501;43.316;5.372;2022-10-26T16:24:34;24.60;90.80
73277;DHT22;61501;43.316;5.372;2022-10-26T16:27:00;24.50;90.90
73277;DHT22;61501;43.316;5.372;2022-10-26T16:29:25;24.40;91.00
73277;DHT22;61501;43.316;5.372;2022-10-26T16:31:51;24.30;91.20
73277;DHT22;61501;43.316;5.372;2022-10-26T16:34:17;24.30;91.60
73277;DHT22;61501;43.316;5.372;2022-10-26T16:36:42;24.30;91.60
73277;DHT22;61501;43.316;5.372;2022-10-26T16:39:10;24.20;91.50
73277;DHT22;61501;43.316;5.372;2022-10-26T16:41:36;24.10;91.60
73277;DHT22;61501;43.316;5.372;2022-10-26T16:44:02;24.10;91.60
73277;DHT22;61501;43.316;5.372;2022-10-26T16:46:27;24.10;91.50
73277;DHT22;61501;43.316;5.372;2022-10-26T16:48:53;24.10;91.60
73277;DHT22;61501;43.316;5.372;2022-10-26T16:51:24;24.00;91.50
73277;DHT22;61501;43.316;5.372;2022-10-26T16:53:52;24.00;91.40
73277;DHT22;61501;43.316;5.372;2022-10-26T16:56:20;23.90;91.40
73277;DHT22;61501;43.316;5.372;2022-10-26T16:58:46;23.90;91.60
73277;DHT22;61501;43.316;5.372;2022-10-26T17:01:13;23.90;91.80
73277;DHT22;61501;43.316;5.372;2022-10-26T17:03:47;23.90;92.00
73277;DHT22;61501;43.316;5.372;2022-10-26T17:06:13;23.90;92.00
73277;DHT22;61501;43.316;5.372;2022-10-26T17:08:39;23.90;92.30
73277;DHT22;61501;43.316;5.372;2022-10-26T17:11:11;23.90;92.60
73277;DHT22;61501;43.316;5.372;2022-10-26T17:13:37;23.80;93.00
73277;DHT22;61501;43.316;5.372;2022-10-26T17:16:05;23.70;93.60
73277;DHT22;61501;43.316;5.372;2022-10-26T17:18:31;23.70;94.00
73277;DHT22;61501;43.316;5.372;2022-10-26T17:20:57;23.70;94.20
73277;DHT22;61501;43.316;5.372;2022-10-26T17:23:23;23.70;94.10
73277;DHT22;61501;43.316;5.372;2022-10-26T17:25:48;23.70;94.10
73277;DHT22;61501;43.316;5.372;2022-10-26T17:28:14;23.70;94.20
73277;DHT22;61501;43.316;5.372;2022-10-26T17:30:40;23.70;94.70
73277;DHT22;61501;43.316;5.372;2022-10-26T17:33:05;23.70;94.80
73277;DHT22;61501;43.316;5.372;2022-10-26T17:35:32;23.70;94.90
73277;DHT22;61501;43.316;5.372;2022-10-26T17:37:58;23.70;95.60
73277;DHT22;61501;43.316;5.372;2022-10-26T17:40:24;23.60;95.50
73277;DHT22;61501;43.316;5.372;2022-10-26T17:42:49;23.60;95.60
73277;DHT22;61501;43.316;5.372;2022-10-26T17:45:15;23.60;95.50
73277;DHT22;61501;43.316;5.372;2022-10-26T17:47:41;23.60;95.40
73277;DHT22;61501;43.316;5.372;2022-10-26T17:50:07;23.60;95.60
73277;DHT22;61501;43.316;5.372;2022-10-26T17:52:33;23.60;95.50
73277;DHT22;61501;43.316;5.372;2022-10-26T17:54:59;23.60;95.90
73277;DHT22;61501;43.316;5.372;2022-10-26T17:57:24;23.50;95.90
73277;DHT22;61501;43.316;5.372;2022-10-26T17:59:50;23.50;96.10
73277;DHT22;61501;43.316;5.372;2022-10-26T18:02:15;23.50;96.20
73277;DHT22;61501;43.316;5.372;2022-10-26T18:04:41;23.40;96.50
73277;DHT22;61501;43.316;5.372;2022-10-26T18:07:07;23.40;96.40